• Join FlightAware (Why Join?)
  • Login
  • US Flag 
01:26PM EDT


 

Airport Tracker/Info


-or-


 

Live Flight TrackerFlight Track Log ✈ AAL2137 ✈ 15-Apr-2013 ✈ KDFW - MGGT / GUA

Flight Track Log - Related Links

Times and Time Zones

All times are in EDT time to prevent confusion due to time zone crossing. See the AAL2137 flight status page for this flight to view local times or setup timezone preferences in your user account.

Time Position Orientation Groundspeed Altitude Reporting Facility
EDT Latitude Longitude Course Direction KTS MPH feet Rate Location/Type
05:55PM 32.8530 -97.0580 192° South 173 199 2,800  Level FlightAware
05:55PM 32.8300 -97.0640 192° South 204 235 3,300 1,380 Climbing FlightAware
05:56PM 32.7990 -97.0710 191° South 239 275 4,100 2,460 Climbing FlightAware
05:56PM 32.7730 -97.0760 189° South 233 268 5,600 3,420 Climbing FlightAware
05:56PM 32.7570 -97.0780 186° South 231 266 6,400 2,640 Climbing FlightAware
05:57PM 32.7240 -97.0720 171° South 251 289 7,600 2,280 Climbing FlightAware
05:57PM 32.6980 -97.0580 156° South 266 306 8,500 2,400 Climbing FlightAware
05:58PM 32.6620 -97.0370 154° Southeast 280 322 9,800 1,440 Climbing FlightAware
05:58PM 32.6190 -96.9980 143° Southeast 323 372 10,200 240 Climbing FlightAware
05:59PM 32.5710 -96.9350 132° Southeast 344 396 10,200 240 Level FlightAware
06:00PM 32.5210 -96.8910 143° Southeast 334 384 10,600 1,620 Climbing FlightAware
06:00PM 32.4610 -96.8710 164° South 342 394 12,400 2,520 Climbing FlightAware
06:01PM 32.3920 -96.8490 165° South 358 412 14,200 2,280 Climbing FlightAware
06:02PM 32.3260 -96.8290 166° South 373 429 15,700 2,220 Climbing FlightAware
06:03PM 32.2590 -96.8060 164° South 386 444 17,200 2,280 Climbing FlightAware
06:03PM 32.1790 -96.7760 162° South 397 457 19,000 2,220 Climbing FlightAware
06:04PM 32.1080 -96.7490 162° South 406 467 20,400 2,040 Climbing FlightAware
06:05PM 32.0290 -96.7180 162° South 413 475 21,900 2,040 Climbing FlightAware
06:05PM 31.9944 -96.7051 162° South 417 480 22,500 1,800 Climbing FlightAware ADS-B
06:06PM 31.9155 -96.6751 162° South 420 483 23,700 1,740 Climbing FlightAware ADS-B
06:06PM 31.8439 -96.6473 162° South 431 496 24,900 1,860 Climbing FlightAware ADS-B
06:06PM 31.8324 -96.6426 161° South 433 498 25,100 1,560 Climbing FlightAware ADS-B
06:07PM 31.7867 -96.6235 160° South 436 502 25,700 1,500 Climbing FlightAware ADS-B
06:07PM 31.7733 -96.6179 160° South 436 502 25,900 1,380 Climbing FlightAware ADS-B
06:07PM 31.7203 -96.5961 161° South 441 507 26,500 1,320 Climbing FlightAware ADS-B
06:07PM 31.7141 -96.5935 160° South 442 509 26,600 1,260 Climbing FlightAware ADS-B
06:08PM 31.6591 -96.5710 161° South 447 514 27,200 1,260 Climbing FlightAware ADS-B
06:08PM 31.6304 -96.5593 161° South 447 514 27,500 1,260 Climbing FlightAware ADS-B
06:08PM 31.5930 -96.5441 161° South 454 522 27,900 1,140 Climbing FlightAware ADS-B
06:09PM 31.5706 -96.5350 161° South 456 525 28,100 1,140 Climbing FlightAware ADS-B
06:09PM 31.5315 -96.5191 161° South 460 529 28,500 1,200 Climbing FlightAware ADS-B
06:09PM 31.5101 -96.5104 161° South 460 529 28,700 1,140 Climbing FlightAware ADS-B
06:10PM 31.4695 -96.4948 162° South 462 532 29,100 1,200 Climbing FlightAware ADS-B
06:10PM 31.4513 -96.4881 163° South 462 532 29,300 1,560 Climbing FlightAware ADS-B
06:10PM 31.4067 -96.4717 163° South 460 529 29,900 1,800 Climbing FlightAware ADS-B
06:10PM 31.3899 -96.4655 163° South 458 527 30,200 2,040 Climbing FlightAware ADS-B
06:11PM 31.3425 -96.4480 162° South 451 519 31,000 1,980 Climbing FlightAware ADS-B
06:11PM 31.3298 -96.4432 162° South 450 518 31,200 1,620 Climbing FlightAware ADS-B
06:11PM 31.2862 -96.4267 162° South 447 514 31,800 1,800 Climbing FlightAware ADS-B
06:11PM 31.2641 -96.4163 158° South 450 518 32,200 1,980 Climbing FlightAware ADS-B
06:11PM 31.2623 -96.4154 157° South 450 518 32,200 1,380 Level FlightAware ADS-B
06:11PM 31.2408 -96.4029 154° Southeast 453 521 32,500 1,380 Climbing FlightAware ADS-B
06:12PM 31.2247 -96.3922 150° Southeast 455 524 32,700 1,500 Climbing FlightAware ADS-B
06:12PM 31.2177 -96.3871 148° Southeast 456 525 32,800 1,620 Climbing FlightAware ADS-B
06:12PM 31.2049 -96.3771 146° Southeast 457 526 33,000 1,380 Climbing FlightAware ADS-B
06:12PM 31.1660 -96.3439 144° Southeast 458 527 33,500 1,380 Climbing FlightAware ADS-B
06:12PM 31.1525 -96.3323 144° Southeast 458 527 33,700 1,320 Climbing FlightAware ADS-B
06:13PM 31.1142 -96.2997 144° Southeast 457 526 34,200 1,260 Climbing FlightAware ADS-B
06:13PM 31.0986 -96.2865 144° Southeast 457 526 34,400 900 Climbing FlightAware ADS-B
06:13PM 31.0584 -96.2525 144° Southeast 457 526 34,700 780 Climbing FlightAware ADS-B
06:13PM 31.0469 -96.2427 144° Southeast 457 526 34,800 960 Climbing FlightAware ADS-B
06:14PM 31.0062 -96.2084 144° Southeast 460 529 35,200 780 Climbing FlightAware ADS-B
06:14PM 30.9947 -96.1986 144° Southeast 460 529 35,200 600 Level FlightAware ADS-B
06:14PM 30.9542 -96.1644 144° Southeast 462 532 35,500 720 Climbing FlightAware ADS-B
06:14PM 30.9421 -96.1541 144° Southeast 463 533 35,600 780 Climbing FlightAware ADS-B
06:15PM 30.9022 -96.1204 144° Southeast 465 535 35,900 720 Climbing FlightAware ADS-B
06:15PM 30.8872 -96.1078 144° Southeast 465 535 36,000 600 Climbing FlightAware ADS-B
06:15PM 30.8496 -96.0764 144° Southeast 467 537 36,200 600 Climbing FlightAware ADS-B
06:15PM 30.8340 -96.0632 144° Southeast 468 539 36,300 600 Climbing FlightAware ADS-B
06:16PM 30.7960 -96.0313 144° Southeast 470 541 36,500 600 Climbing FlightAware ADS-B
06:16PM 30.7805 -96.0183 144° Southeast 471 542 36,600 540 Climbing FlightAware ADS-B
06:16PM 30.7425 -95.9863 144° Southeast 472 543 36,800 540 Climbing FlightAware ADS-B
06:16PM 30.7266 -95.9730 144° Southeast 472 543 36,900 360 Climbing FlightAware ADS-B
06:17PM 30.6892 -95.9416 144° Southeast 473 544 37,000 180 Climbing FlightAware ADS-B
06:17PM 30.6694 -95.9252 145° Southeast 474 545 37,000  Level FlightAware ADS-B
06:17PM 30.6350 -95.8965 144° Southeast 475 547 37,000  Level FlightAware ADS-B
06:17PM 30.6159 -95.8806 144° Southeast 475 547 37,000  Level FlightAware ADS-B
06:18PM 30.5794 -95.8499 144° Southeast 476 548 37,000  Level FlightAware ADS-B
06:18PM 30.5619 -95.8353 144° Southeast 477 549 37,000  Level FlightAware ADS-B
06:18PM 30.5256 -95.8048 144° Southeast 478 550 37,000  Level FlightAware ADS-B
06:18PM 30.5075 -95.7897 144° Southeast 478 550 37,000  Level FlightAware ADS-B
06:19PM 30.4708 -95.7591 144° Southeast 478 550 37,000  Level FlightAware ADS-B
06:19PM 30.4530 -95.7443 144° Southeast 478 550 37,000  Level FlightAware ADS-B
06:19PM 30.4163 -95.7139 144° Southeast 478 550 37,000  Level FlightAware ADS-B
06:19PM 30.3959 -95.6968 144° Southeast 478 550 37,000  Level FlightAware ADS-B
06:20PM 30.3624 -95.6691 144° Southeast 475 547 37,000  Level FlightAware ADS-B
06:20PM 30.3347 -95.6463 145° Southeast 474 545 37,000  Level FlightAware ADS-B
06:20PM 30.3076 -95.6239 144° Southeast 473 544 37,000  Level FlightAware ADS-B
06:21PM 30.2755 -95.5975 145° Southeast 474 545 37,000  Level FlightAware ADS-B
06:21PM 30.2508 -95.5770 144° Southeast 474 545 37,000  Level FlightAware ADS-B
06:21PM 30.2221 -95.5533 144° Southeast 474 545 37,000  Level FlightAware ADS-B
06:21PM 30.1956 -95.5314 144° Southeast 474 545 37,000  Level FlightAware ADS-B
06:22PM 30.1652 -95.5065 145° Southeast 473 544 37,000  Level FlightAware ADS-B
06:22PM 30.1420 -95.4872 144° Southeast 473 544 37,000  Level FlightAware ADS-B
06:22PM 30.1112 -95.4619 145° Southeast 473 544 37,000  Level FlightAware ADS-B
06:22PM 30.0882 -95.4429 144° Southeast 472 543 37,000  Level FlightAware ADS-B
06:23PM 30.0578 -95.4179 145° Southeast 472 543 37,000  Level FlightAware ADS-B
06:23PM 30.0338 -95.3982 145° Southeast 472 543 37,000  Level FlightAware ADS-B
06:23PM 30.0038 -95.3735 145° Southeast 472 543 37,000  Level FlightAware ADS-B
06:23PM 29.9800 -95.3539 144° Southeast 472 543 37,000  Level FlightAware ADS-B
06:24PM 29.9503 -95.3295 145° Southeast 471 542 37,000  Level FlightAware ADS-B
06:24PM 29.9248 -95.3085 144° Southeast 471 542 37,000  Level FlightAware ADS-B
06:24PM 29.8967 -95.2855 145° Southeast 471 542 37,000  Level FlightAware ADS-B
06:24PM 29.8685 -95.2624 145° Southeast 471 542 37,000  Level FlightAware ADS-B
06:25PM 29.8432 -95.2418 145° Southeast 471 542 37,000  Level FlightAware ADS-B
06:25PM 29.8141 -95.2180 145° Southeast 471 542 37,000  Level FlightAware ADS-B
06:25PM 29.7896 -95.1980 145° Southeast 470 541 37,000  Level FlightAware ADS-B
06:25PM 29.7604 -95.1742 145° Southeast 470 541 37,000  Level FlightAware ADS-B
06:26PM 29.7358 -95.1541 145° Southeast 470 541 37,000  Level FlightAware ADS-B
06:26PM 29.7012 -95.1259 145° Southeast 470 541 37,000  Level FlightAware ADS-B
06:26PM 29.6820 -95.1103 145° Southeast 470 541 37,000  Level FlightAware ADS-B
06:26PM 29.6478 -95.0824 145° Southeast 470 541 37,000  Level FlightAware ADS-B
06:27PM 29.6286 -95.0669 145° Southeast 469 540 37,000  Level FlightAware ADS-B
06:27PM 29.5943 -95.0389 145° Southeast 468 539 37,000  Level FlightAware ADS-B
06:27PM 29.5748 -95.0231 145° Southeast 468 539 37,000  Level FlightAware ADS-B
06:27PM 29.5409 -94.9956 145° Southeast 468 539 37,000  Level FlightAware ADS-B
06:28PM 29.5211 -94.9795 145° Southeast 468 539 37,000  Level FlightAware ADS-B
06:28PM 29.4880 -94.9527 145° Southeast 468 539 37,000  Level FlightAware ADS-B
06:28PM 29.4671 -94.9357 145° Southeast 468 539 37,000  Level FlightAware ADS-B
06:28PM 29.4332 -94.9082 145° Southeast 467 537 37,000  Level FlightAware ADS-B
06:29PM 29.4140 -94.8926 145° Southeast 467 537 37,000  Level FlightAware ADS-B
06:29PM 29.3602 -94.8491 145° Southeast 466 536 37,000  Level FlightAware ADS-B
06:29PM 29.3591 -94.8483 148° Southeast 466 536 37,000  Level FlightAware ADS-B
06:30PM 29.3073 -94.8065 145° Southeast 466 536 37,000  Level FlightAware ADS-B
06:30PM 29.3038 -94.8036 144° Southeast 466 536 37,000  Level FlightAware ADS-B
06:30PM 29.2538 -94.7634 145° Southeast 466 536 37,000  Level FlightAware ADS-B
06:30PM 29.2459 -94.7570 145° Southeast 466 536 37,000  Level FlightAware ADS-B
06:31PM 29.2001 -94.7200 145° Southeast 466 536 37,000  Level FlightAware ADS-B
06:31PM 29.1920 -94.7135 145° Southeast 466 536 37,000  Level FlightAware ADS-B
06:31PM 29.1449 -94.6757 145° Southeast 467 537 37,000  Level FlightAware ADS-B
06:31PM 29.1370 -94.6693 145° Southeast 467 537 37,000  Level FlightAware ADS-B
06:32PM 29.0901 -94.6317 145° Southeast 467 537 37,000  Level FlightAware ADS-B
06:32PM 29.0362 -94.5885 145° Southeast 466 536 37,000  Level FlightAware ADS-B
06:33PM 28.9831 -94.5459 145° Southeast 466 536 37,000  Level FlightAware ADS-B
06:33PM 28.9287 -94.5023 145° Southeast 466 536 37,000  Level FlightAware ADS-B
06:34PM 28.8753 -94.4596 145° Southeast 467 537 37,000  Level FlightAware ADS-B
06:34PM 28.8222 -94.4171 145° Southeast 466 536 37,000  Level FlightAware ADS-B
06:35PM 28.7642 -94.3708 145° Southeast 467 537 37,000  Level FlightAware ADS-B
06:35PM 28.7070 -94.3253 145° Southeast 467 537 37,000  Level FlightAware ADS-B
06:36PM 28.6523 -94.2818 145° Southeast 467 537 37,000  Level FlightAware ADS-B
06:36PM 28.5945 -94.2359 145° Southeast 467 537 37,000  Level FlightAware ADS-B
06:37PM 28.5408 -94.1934 145° Southeast 468 539 37,000  Level FlightAware ADS-B
06:37PM 28.4836 -94.1482 145° Southeast 470 541 37,000  Level FlightAware ADS-B
06:38PM 28.4221 -94.0995 145° Southeast 470 541 37,000  Level FlightAware ADS-B
06:39PM 28.3651 -94.0544 145° Southeast 470 541 37,000  Level FlightAware ADS-B
06:39PM 28.3042 -94.0065 145° Southeast 472 543 37,000  Level FlightAware ADS-B
06:40PM 28.2423 -93.9578 145° Southeast 472 543 37,000  Level FlightAware ADS-B
06:40PM 28.1885 -93.9154 145° Southeast 472 543 37,000  Level FlightAware ADS-B
06:41PM 28.1342 -93.8727 145° Southeast 471 542 37,000  Level FlightAware ADS-B
06:41PM 28.0678 -93.8207 145° Southeast 471 542 37,000  Level FlightAware ADS-B
06:42PM 28.0137 -93.7782 145° Southeast 471 542 37,000  Level FlightAware ADS-B
06:42PM 27.9440 -93.7237 145° Southeast 471 542 37,000  Level FlightAware ADS-B
06:43PM 27.9142 -93.6994 145° Southeast 470 541 37,000  Level Houston Center
06:44PM 27.8053 -93.6183 147° Southeast 469 540 37,000  Level Houston Center
06:45PM 27.6981 -93.5336 145° Southeast 469 540 37,000  Level Houston Center
06:46PM 27.5853 -93.4375 143° Southeast 468 539 37,000  Level Houston Center
06:47PM 27.4778 -93.3544 146° Southeast 467 537 37,000  Level Houston Center
06:48PM 27.3783 -93.2811 147° Southeast 468 539 37,000  Level Houston Center
06:49PM 27.2508 -93.1794 145° Southeast 469 540 37,000  Level Houston Center
06:50PM 27.1425 -93.0978 146° Southeast 468 539 37,000  Level Houston Center
06:52PM 27.0017 -92.9888 145° Southeast  Level FlightAware Approximate
06:59PM 26.2996 -92.5039 149° Southeast  Level FlightAware Approximate
07:00PM 26.1979 -92.4374 150° Southeast  Level FlightAware Approximate
07:01PM 26.0962 -92.3710 150° Southeast  Level FlightAware Approximate
07:02PM 25.9944 -92.3047 150° Southeast  Level FlightAware Approximate
07:03PM 25.8926 -92.2385 150° Southeast  Level FlightAware Approximate
07:04PM 25.7910 -92.1721 149° Southeast  Level FlightAware Approximate
07:05PM 25.6895 -92.1054 149° Southeast  Level FlightAware Approximate
07:06PM 25.5880 -92.0388 149° Southeast  Level FlightAware Approximate
07:07PM 25.4865 -91.9724 149° Southeast  Level FlightAware Approximate
07:08PM 25.3849 -91.9060 149° Southeast  Level FlightAware Approximate
07:09PM 25.2833 -91.8398 149° Southeast  Level FlightAware Approximate
07:10PM 25.1817 -91.7737 150° Southeast  Level FlightAware Approximate
07:11PM 25.0800 -91.7076 150° Southeast  Level FlightAware Approximate
07:12PM 24.9783 -91.6417 150° Southeast  Level FlightAware Approximate
07:13PM 24.8766 -91.5759 150° Southeast  Level FlightAware Approximate
07:14PM 24.7749 -91.5102 150° Southeast  Level FlightAware Approximate
07:15PM 24.6731 -91.4446 150° Southeast  Level FlightAware Approximate
07:16PM 24.5714 -91.3792 150° Southeast  Level FlightAware Approximate
07:17PM 24.4679 -91.3173 155° Southeast  Level FlightAware Approximate
07:18PM 24.3606 -91.2636 155° Southeast  Level FlightAware Approximate
07:19PM 24.2532 -91.2101 156° South  Level FlightAware Approximate
07:20PM 24.1454 -91.1577 156° South  Level FlightAware Approximate
07:21PM 24.0376 -91.1054 156° South  Level FlightAware Approximate
07:22PM 23.9298 -91.0532 156° South  Level FlightAware Approximate
07:23PM 23.8219 -91.0010 156° South  Level FlightAware Approximate
07:24PM 23.7141 -90.9490 156° South  Level FlightAware Approximate
07:25PM 23.6062 -90.8970 156° South  Level FlightAware Approximate
07:26PM 23.4983 -90.8451 156° South  Level FlightAware Approximate
07:27PM 23.3904 -90.7933 156° South  Level FlightAware Approximate
07:28PM 23.2826 -90.7413 155° Southeast  Level FlightAware Approximate
07:29PM 23.1754 -90.6877 155° Southeast  Level FlightAware Approximate
07:30PM 23.0674 -90.6364 159° South  Level FlightAware Approximate
07:31PM 22.9573 -90.5905 159° South  Level FlightAware Approximate
07:32PM 22.8483 -90.5419 156° South  Level FlightAware Approximate
07:33PM 22.7404 -90.4902 156° South  Level FlightAware Approximate
07:34PM 22.6325 -90.4386 156° South  Level FlightAware Approximate
07:35PM 22.5240 -90.3868 156° South  Level FlightAware Approximate
07:36PM 22.4151 -90.3359 157° South  Level FlightAware Approximate
07:37PM 22.3062 -90.2851 157° South  Level FlightAware Approximate
07:38PM 22.1973 -90.2344 157° South  Level FlightAware Approximate
07:39PM 22.0884 -90.1837 157° South  Level FlightAware Approximate
07:40PM 21.9794 -90.1331 157° South  Level FlightAware Approximate
07:41PM 21.8705 -90.0826 157° South  Level FlightAware Approximate
07:42PM 21.7615 -90.0322 157° South  Level FlightAware Approximate
07:43PM 21.6525 -89.9819 157° South  Level FlightAware Approximate
07:44PM 21.5434 -89.9320 157° South  Level FlightAware Approximate
07:45PM 21.4340 -89.8827 157° South  Level FlightAware Approximate
07:46PM 21.3246 -89.8335 157° South  Level FlightAware Approximate
07:47PM 21.2155 -89.7836 156° South  Level FlightAware Approximate
07:48PM 21.1070 -89.7322 156° South  Level FlightAware Approximate
07:49PM 20.9985 -89.6808 156° South  Level FlightAware Approximate
07:50PM 20.8861 -89.6466 176° South  Level FlightAware Approximate
07:51PM 20.7677 -89.6381 176° South  Level FlightAware Approximate
07:52PM 20.6494 -89.6297 176° South  Level FlightAware Approximate
07:53PM 20.5311 -89.6212 176° South  Level FlightAware Approximate
07:54PM 20.4127 -89.6128 176° South  Level FlightAware Approximate
07:55PM 20.2944 -89.6043 176° South  Level FlightAware Approximate
07:56PM 20.1761 -89.5952 176° South  Level FlightAware Approximate
07:57PM 20.0579 -89.5853 176° South  Level FlightAware Approximate
07:58PM 19.9396 -89.5754 176° South  Level FlightAware Approximate
07:59PM 19.8214 -89.5655 176° South  Level FlightAware Approximate
08:00PM 19.7031 -89.5557 176° South  Level FlightAware Approximate
08:01PM 19.5849 -89.5458 176° South  Level FlightAware Approximate
08:02PM 19.4667 -89.5360 176° South  Level FlightAware Approximate
08:03PM 19.3484 -89.5262 176° South  Level FlightAware Approximate
08:04PM 19.2302 -89.5165 177° South  Level FlightAware Approximate
08:05PM 19.1117 -89.5110 177° South  Level FlightAware Approximate
08:06PM 18.9932 -89.5054 177° South  Level FlightAware Approximate
08:07PM 18.8747 -89.4999 177° South  Level FlightAware Approximate
08:08PM 18.7562 -89.4943 177° South  Level FlightAware Approximate
08:09PM 18.6377 -89.4888 177° South  Level FlightAware Approximate
08:10PM 18.5192 -89.4833 177° South  Level FlightAware Approximate
08:11PM 18.4007 -89.4778 177° South  Level FlightAware Approximate
08:12PM 18.2822 -89.4723 177° South  Level FlightAware Approximate
08:13PM 18.1638 -89.4668 177° South  Level FlightAware Approximate
08:14PM 18.0453 -89.4613 177° South  Level FlightAware Approximate
08:15PM 17.9268 -89.4558 177° South  Level FlightAware Approximate
08:16PM 17.8083 -89.4504 177° South  Level FlightAware Approximate
08:17PM 17.6903 -89.4378 174° South  Level FlightAware Approximate
08:18PM 17.5722 -89.4267 175° South  Level FlightAware Approximate
08:19PM 17.4540 -89.4166 175° South  Level FlightAware Approximate
08:20PM 17.3358 -89.4065 175° South  Level FlightAware Approximate
08:21PM 17.2176 -89.3965 175° South  Level FlightAware Approximate
08:22PM 17.0994 -89.3864 175° South  Level FlightAware Approximate
08:23PM 16.9812 -89.3764 175° South  Level FlightAware Approximate
08:24PM 16.8629 -89.3667 180° South  Level FlightAware Approximate
08:25PM 16.7531 -89.3980 213° Southwest  Level FlightAware Approximate
08:26PM 16.6520 -89.4626 210° Southwest  Level FlightAware Approximate
08:27PM 16.5495 -89.5250 210° Southwest  Level FlightAware Approximate
08:28PM 16.4471 -89.5874 210° Southwest  Level FlightAware Approximate
08:29PM 16.3446 -89.6497 210° Southwest  Level FlightAware Approximate
08:30PM 16.2395 -89.7066 211° Southwest  Level FlightAware Approximate
08:31PM 16.1378 -89.7701 211° Southwest  Level FlightAware Approximate
08:32PM 16.0392 -89.8387 214° Southwest  Level FlightAware Approximate
08:33PM 15.9384 -89.9036 210° Southwest  Level FlightAware Approximate
08:34PM 15.8357 -89.9653 210° Southwest  Level FlightAware Approximate
08:35PM 15.7325 -90.0260 207° Southwest  Level FlightAware Approximate
08:36PM 15.6270 -90.0823 207° Southwest  Level FlightAware Approximate
08:37PM 15.5215 -90.1385 207° Southwest  Level FlightAware Approximate
08:38PM 15.4206 -90.2030 213° Southwest  Level FlightAware Approximate
08:39PM 15.3208 -90.2695 213° Southwest  Level FlightAware Approximate
08:40PM 15.2196 -90.3336 211° Southwest  Level FlightAware Approximate
08:41PM 15.1176 -90.3961 210° Southwest  Level FlightAware Approximate
08:42PM 15.0149 -90.4577 210° Southwest  Level FlightAware Approximate
08:43PM 14.8990 -90.4734 186° South  Level FlightAware Approximate
08:44PM 14.7817 -90.4894 198° South  Level FlightAware Approximate